createdAt,value
2022-10-13T00:01:11.723Z,87
2022-10-13T00:07:03.769Z,87
2022-10-13T00:12:38.989Z,86.9
2022-10-13T00:18:17.714Z,86.9
2022-10-13T00:24:05.415Z,86.9
2022-10-13T00:29:40.554Z,86.9
2022-10-13T00:35:15.225Z,86.9
2022-10-13T00:40:50.431Z,86.9
2022-10-13T00:46:25.556Z,87
2022-10-13T00:52:00.187Z,87
2022-10-13T00:57:35.073Z,87
2022-10-13T01:03:11.201Z,86.9
2022-10-13T01:08:47.244Z,87
2022-10-13T01:14:22.651Z,87
2022-10-13T01:19:58.526Z,86.9
2022-10-13T01:25:33.688Z,87
2022-10-13T01:31:08.742Z,87
2022-10-13T01:36:43.882Z,87.1
2022-10-13T01:42:19.421Z,87.1
2022-10-13T01:47:56.213Z,87
2022-10-13T01:53:32.577Z,87
2022-10-13T01:59:08.515Z,87
2022-10-13T02:04:43.542Z,87
2022-10-13T02:10:18.715Z,87.1
2022-10-13T02:15:54.738Z,87
2022-10-13T02:21:29.673Z,87.1
2022-10-13T02:27:06.386Z,87
2022-10-13T02:32:41.448Z,87.1
2022-10-13T02:38:16.368Z,87.2
2022-10-13T02:43:52.064Z,87.2
2022-10-13T02:49:27.273Z,87.2
2022-10-13T02:55:07.061Z,87.2
2022-10-13T03:00:51.192Z,87.2
2022-10-13T03:06:28.090Z,87.3
2022-10-13T03:12:04.451Z,87.4
2022-10-13T03:17:39.937Z,87.3
2022-10-13T03:23:15.097Z,87.3
2022-10-13T03:28:50.457Z,87.2
2022-10-13T03:34:26.669Z,87.1
2022-10-13T03:40:02.758Z,87
2022-10-13T03:45:38.018Z,86.9
2022-10-13T03:51:19.708Z,86.9
2022-10-13T03:56:57.851Z,86.8
2022-10-13T04:02:33.086Z,86.8
2022-10-13T04:08:08.079Z,86.8
2022-10-13T04:13:43.027Z,86.9
2022-10-13T04:19:18.129Z,87
2022-10-13T04:24:54.454Z,87
2022-10-13T04:30:29.402Z,87
2022-10-13T04:36:04.187Z,86.8
2022-10-13T04:41:40.245Z,86.9
2022-10-13T04:47:15.211Z,87
2022-10-13T04:52:50.159Z,86.9
2022-10-13T04:58:26.187Z,86.9
2022-10-13T05:04:01.228Z,86.9
2022-10-13T05:09:48.682Z,86.8
2022-10-13T05:15:23.616Z,86.7
2022-10-13T05:20:58.361Z,86.7
2022-10-13T05:26:34.241Z,86.7
2022-10-13T05:32:20.089Z,86.7
2022-10-13T05:38:05.156Z,86.8
2022-10-13T05:43:40.880Z,86.7
2022-10-13T05:49:15.639Z,86.7
2022-10-13T05:54:50.643Z,86.7
2022-10-13T06:00:26.106Z,86.7
2022-10-13T06:06:03.662Z,86.8
2022-10-13T06:11:38.507Z,86.9
2022-10-13T06:17:13.813Z,86.9
2022-10-13T06:22:49.636Z,86.9
2022-10-13T06:28:25.981Z,87
2022-10-13T06:34:01.436Z,87
2022-10-13T06:39:36.569Z,87.2
2022-10-13T06:45:11.357Z,87.2
2022-10-13T06:50:46.260Z,87.3
2022-10-13T06:56:21.306Z,87.3
2022-10-13T07:01:56.435Z,87.4
2022-10-13T07:07:32.960Z,87.4
2022-10-13T07:13:08.471Z,87.4
2022-10-13T07:18:44.334Z,87.5
2022-10-13T07:24:19.353Z,87.5
2022-10-13T07:29:55.348Z,87.4
2022-10-13T07:35:31.497Z,87.4
2022-10-13T07:41:07.868Z,87.6
2022-10-13T07:46:43.316Z,87.7
2022-10-13T07:52:20.054Z,87.8
2022-10-13T07:57:57.929Z,87.9
2022-10-13T08:03:49.153Z,87.6
2022-10-13T08:09:25.565Z,86.6
2022-10-13T08:15:06.861Z,86.7
2022-10-13T08:20:45.192Z,86.8
2022-10-13T08:27:14.469Z,86.4
2022-10-13T08:32:54.573Z,86.1
2022-10-13T08:38:29.786Z,86.1
2022-10-13T08:51:27.317Z,82.7
2022-10-13T08:57:02.594Z,81.3
2022-10-13T09:02:37.663Z,82.7
2022-10-13T09:08:12.907Z,82.8
2022-10-13T09:13:47.973Z,82.7
2022-10-13T09:19:22.765Z,83.7
2022-10-13T09:24:57.927Z,80
2022-10-13T09:30:41.992Z,78.7
2022-10-13T09:36:16.973Z,78.3
2022-10-13T09:42:13.301Z,78.4
2022-10-13T09:47:49.621Z,76.5
2022-10-13T09:53:24.584Z,75.8
2022-10-13T09:58:59.727Z,75.5
2022-10-13T10:04:35.284Z,73.3
2022-10-13T10:10:10.526Z,71.7
2022-10-13T10:15:45.857Z,72.3
2022-10-13T10:21:21.522Z,72.4
2022-10-13T10:26:56.449Z,70.1
2022-10-13T10:32:31.548Z,69.9
2022-10-13T10:38:06.636Z,69.3
2022-10-13T10:43:41.866Z,70
2022-10-13T10:49:16.813Z,69
2022-10-13T10:54:51.982Z,67.7
2022-10-13T11:06:04.584Z,66.2
2022-10-13T11:11:39.917Z,67.5
2022-10-13T11:17:14.756Z,66.1
2022-10-13T11:22:50.867Z,63.5
2022-10-13T11:28:26.602Z,64.4
2022-10-13T11:34:02.532Z,66.7
2022-10-13T11:39:39.283Z,65.9
2022-10-13T11:45:15.525Z,64.4
2022-10-13T11:50:50.416Z,62.7
2022-10-13T11:56:25.686Z,64.6
2022-10-13T12:02:00.595Z,62.6
2022-10-13T12:07:36.597Z,66.4
2022-10-13T12:13:11.813Z,66.2
2022-10-13T12:18:46.858Z,64.3
2022-10-13T12:24:22.982Z,66.4
2022-10-13T12:29:58.327Z,63.1
2022-10-13T12:35:33.484Z,61.7
2022-10-13T12:41:08.424Z,59.6
2022-10-13T12:46:43.364Z,61.7
2022-10-13T12:52:19.988Z,62
2022-10-13T12:57:58.231Z,58.9
2022-10-13T13:03:34.059Z,56.4
2022-10-13T13:09:09.352Z,57.7
2022-10-13T13:14:45.226Z,56.5
2022-10-13T13:20:20.485Z,57.8
2022-10-13T13:25:55.216Z,57.4
2022-10-13T13:31:30.197Z,59.2
2022-10-13T13:37:05.653Z,58.7
2022-10-13T13:42:40.780Z,61.6
2022-10-13T13:48:15.822Z,58.7
2022-10-13T13:53:50.666Z,59.3
2022-10-13T13:59:27.104Z,56.2
2022-10-13T14:05:02.428Z,59
2022-10-13T14:10:37.166Z,59.9
2022-10-13T14:16:13.654Z,61.3
2022-10-13T14:21:48.734Z,62.1
2022-10-13T14:27:23.645Z,62.1
2022-10-13T14:32:59.007Z,63.2
2022-10-13T14:38:33.857Z,64.3
2022-10-13T14:44:08.813Z,62.4
2022-10-13T14:49:43.903Z,63.4
2022-10-13T14:55:18.963Z,63.8
2022-10-13T15:00:53.978Z,65.4
2022-10-13T15:06:29.610Z,65.9
2022-10-13T15:12:04.606Z,67.7
2022-10-13T15:17:39.402Z,65.6
2022-10-13T15:23:14.672Z,69.3
2022-10-13T15:28:49.896Z,68.6
2022-10-13T15:34:25.983Z,69.1
2022-10-13T15:40:01.148Z,68.5
2022-10-13T15:45:36.480Z,69.1
2022-10-13T15:51:11.420Z,68
2022-10-13T15:56:46.491Z,68.2
2022-10-13T16:02:22.359Z,68.6
2022-10-13T16:08:00.530Z,68.9
2022-10-13T16:13:35.583Z,69.2
2022-10-13T16:19:10.448Z,69.5
2022-10-13T16:24:46.370Z,69.7
2022-10-13T16:30:21.181Z,70
2022-10-13T16:35:55.819Z,70.2
2022-10-13T16:41:30.979Z,69.8
2022-10-13T16:47:05.918Z,69.3
2022-10-13T16:52:40.632Z,69.9
2022-10-13T16:58:15.875Z,70.1
2022-10-13T17:03:51.082Z,70.3
2022-10-13T17:09:25.879Z,70.2
2022-10-13T17:15:00.917Z,70.1
2022-10-13T17:20:36.990Z,70.1
2022-10-13T17:26:11.807Z,70.4
2022-10-13T17:31:46.603Z,70.6
2022-10-13T17:37:22.972Z,70.8
2022-10-13T17:42:58.761Z,70.8
2022-10-13T17:48:34.270Z,70.7
2022-10-13T17:54:16.746Z,71
2022-10-13T17:59:51.974Z,70.9
2022-10-13T18:05:26.825Z,71.8
2022-10-13T18:11:09.078Z,72
2022-10-13T18:16:45.717Z,69.8
2022-10-13T18:22:20.608Z,70.3
2022-10-13T18:27:55.665Z,70.1
2022-10-13T18:33:33.142Z,70
2022-10-13T18:39:07.962Z,71.4
2022-10-13T18:44:42.823Z,70.7
2022-10-13T18:50:19.824Z,71.7
2022-10-13T18:56:10.028Z,73
2022-10-13T19:01:45.175Z,71.8
2022-10-13T19:07:21.963Z,73.4
2022-10-13T19:12:58.429Z,74.3
2022-10-13T19:18:33.381Z,74.2
2022-10-13T19:24:08.552Z,74.3
2022-10-13T19:29:43.458Z,73.8
2022-10-13T19:35:18.312Z,75
2022-10-13T19:40:53.280Z,75.2
2022-10-13T19:46:28.350Z,76.2
2022-10-13T19:52:03.512Z,76.7
2022-10-13T19:57:38.271Z,76.1
2022-10-13T20:03:13.321Z,76.7
2022-10-13T20:08:48.435Z,77.2
2022-10-13T20:14:23.688Z,76.7
2022-10-13T20:19:58.756Z,76.7
2022-10-13T20:25:40.993Z,77.7
2022-10-13T20:31:15.857Z,74.8
2022-10-13T20:36:50.923Z,76.1
2022-10-13T20:42:26.398Z,75.4
2022-10-13T20:48:01.195Z,76
2022-10-13T20:53:35.966Z,74.6
2022-10-13T20:59:10.715Z,74.5
2022-10-13T21:04:46.626Z,74.5
2022-10-13T21:10:21.520Z,74.8
2022-10-13T21:15:56.668Z,74.7
2022-10-13T21:21:32.788Z,74.8
2022-10-13T21:27:08.099Z,75
2022-10-13T21:32:44.413Z,74.8
2022-10-13T21:38:19.248Z,74.8
2022-10-13T21:43:54.364Z,74.8
2022-10-13T21:49:29.275Z,74.5
2022-10-13T21:55:03.894Z,74.7
2022-10-13T22:00:39.397Z,74.7
2022-10-13T22:06:19.735Z,74.7
2022-10-13T22:11:56.998Z,74.9
2022-10-13T22:17:31.914Z,75.1
2022-10-13T22:23:06.871Z,75.3
2022-10-13T22:28:42.210Z,75.5
2022-10-13T22:34:19.055Z,75.7
2022-10-13T22:39:54.134Z,75.7
2022-10-13T22:45:28.952Z,75.9
2022-10-13T22:51:04.061Z,75.9
2022-10-13T22:56:39.110Z,76.1
2022-10-13T23:02:14.302Z,76.3
2022-10-13T23:07:49.358Z,76.5
2022-10-13T23:13:24.390Z,76.6
2022-10-13T23:19:00.063Z,76.6
2022-10-13T23:24:35.117Z,76.9
2022-10-13T23:30:10.371Z,77.2
2022-10-13T23:35:46.456Z,77.6
2022-10-13T23:41:21.342Z,77.8
2022-10-13T23:46:56.468Z,78.2
2022-10-13T23:52:31.621Z,78.5
2022-10-13T23:58:06.843Z,78.8
